Time;durP1;ratioP1;P1;durP2;ratioP2;P2;SDS_P1;SDS_P2;PMS_P1;PMS_P2;Temp;Humidity;BMP_temperature;BMP_pressure;BME280_temperature;BME280_humidity;BME280_pressure;Samples;Min_cycle;Max_cycle;Signal;HPM_P1;HPM_P2
2022/03/05 00:01:31;;;;;;;15.88;12.10;;;;;;;6.88;57.99;101287.00;5009322;28;20148;-81
2022/03/05 00:04:01;;;;;;;14.82;12.85;;;;;;;6.32;58.03;101194.59;4991587;28;20069;-82
2022/03/05 00:06:30;;;;;;;17.83;13.00;;;;;;;6.87;58.46;101293.22;5008061;28;20053;-82
2022/03/05 00:08:58;;;;;;;14.45;12.85;;;;;;;6.81;58.76;101286.53;5008576;28;20058;-83
2022/03/05 00:11:29;;;;;;;17.83;13.38;;;;;;;6.76;58.28;101285.97;4991993;28;20058;-82
2022/03/05 00:13:57;;;;;;;15.88;12.77;;;;;;;6.55;58.72;101266.19;5008378;28;20049;-82
2022/03/05 00:16:29;;;;;;;17.17;13.23;;;;;;;5.91;58.38;101160.19;4972324;28;20090;-83
2022/03/05 00:18:55;;;;;;;16.30;12.80;;;;;;;6.13;58.79;101210.69;4971870;28;20104;-83
2022/03/05 00:21:25;;;;;;;14.80;12.25;;;;;;;6.38;59.02;101246.09;4972291;28;20052;-83
2022/03/05 00:23:51;;;;;;;15.48;12.82;;;;;;;5.75;58.76;101141.81;4972449;28;20149;-82
2022/03/05 00:26:18;;;;;;;13.40;11.75;;;;;;;6.71;59.10;101303.03;4973437;28;20149;-82
2022/03/05 00:28:45;;;;;;;15.35;13.27;;;;;;;6.49;59.47;101272.69;4992325;28;20318;-82
2022/03/05 00:31:11;;;;;;;15.85;12.57;;;;;;;6.31;59.89;101245.66;4990857;28;20480;-82
2022/03/05 00:33:38;;;;;;;15.52;13.70;;;;;;;6.57;59.93;101288.88;4989259;28;20413;-83
2022/03/05 00:36:11;;;;;;;;;;;;;;;6.58;60.11;101309.06;4972403;28;20053;-81
2022/03/05 00:38:45;;;;;;;17.50;12.98;;;;;;;6.00;59.57;101212.38;4971031;28;20371;-83
2022/03/05 00:41:14;;;;;;;16.50;14.40;;;;;;;6.22;60.00;101259.38;4987173;28;20504;-82
2022/03/05 00:43:41;;;;;;;17.10;13.90;;;;;;;5.24;59.91;101099.19;4988415;28;20046;-82
2022/03/05 00:46:08;;;;;;;18.88;13.73;;;;;;;6.55;59.88;101321.56;4971119;28;20174;-84
2022/03/05 00:48:35;;;;;;;15.15;12.90;;;;;;;6.51;59.71;101314.81;4971248;28;20651;-83
2022/03/05 00:51:02;;;;;;;14.70;12.90;;;;;;;6.30;59.58;101280.00;4988579;28;20437;-82
2022/03/05 00:53:32;;;;;;;17.38;14.10;;;;;;;6.40;59.39;101289.91;4970236;28;20463;-83
2022/03/05 00:55:59;;;;;;;13.55;12.23;;;;;;;5.44;59.92;101138.38;4988153;28;20140;-84
2022/03/05 00:58:25;;;;;;;15.50;13.85;;;;;;;6.25;59.24;101271.53;4970814;28;20069;-82
2022/03/05 01:00:54;;;;;;;19.67;13.77;;;;;;;6.45;59.46;101310.72;4970957;28;20109;-82
2022/03/05 01:03:22;;;;;;;17.40;13.43;;;;;;;6.42;59.66;101316.19;4984941;28;20062;-82
2022/03/05 01:05:50;;;;;;;18.52;14.13;;;;;;;5.81;59.47;101211.75;4990433;28;20115;-81
2022/03/05 01:08:16;;;;;;;18.15;14.48;;;;;;;6.34;59.28;101295.56;4990310;28;20411;-82
2022/03/05 01:10:43;;;;;;;20.95;14.30;;;;;;;6.26;59.68;101289.03;4989523;28;20187;-83
2022/03/05 01:13:09;;;;;;;16.40;13.05;;;;;;;5.88;59.98;101223.63;5007547;28;20494;-84
2022/03/05 01:15:36;;;;;;;19.70;15.07;;;;;;;6.42;60.19;101313.56;5007496;28;20136;-82
2022/03/05 01:18:03;;;;;;;17.40;13.73;;;;;;;6.34;59.95;101307.91;4989683;28;20415;-83
2022/03/05 01:20:30;;;;;;;21.25;15.00;;;;;;;6.32;59.85;101312.41;4989356;28;20149;-83
2022/03/05 01:22:57;;;;;;;18.05;13.95;;;;;;;6.04;60.18;101282.41;4989897;28;20393;-81
2022/03/05 01:25:23;;;;;;;19.15;14.90;;;;;;;6.28;60.17;101313.53;4989355;28;20053;-82
2022/03/05 01:27:50;;;;;;;21.00;15.63;;;;;;;6.31;60.30;101308.06;5006539;28;20561;-83
2022/03/05 01:30:17;;;;;;;17.58;15.48;;;;;;;6.31;60.18;101308.94;5007222;28;20574;-83
2022/03/05 01:32:43;;;;;;;22.50;15.48;;;;;;;6.12;59.71;101255.63;4989126;28;20064;-82
2022/03/05 01:35:10;;;;;;;19.30;16.05;;;;;;;6.01;59.38;101245.69;5006870;28;20053;-83
2022/03/05 01:37:36;;;;;;;17.98;15.50;;;;;;;6.14;60.31;101275.66;4989821;28;20408;-81
2022/03/05 01:40:04;;;;;;;34.05;16.73;;;;;;;6.16;59.97;101281.66;5005794;28;20543;-81
2022/03/05 01:42:32;;;;;;;19.52;16.83;;;;;;;6.22;60.52;101292.81;4989013;28;20092;-82
2022/03/05 01:45:01;;;;;;;18.38;16.40;;;;;;;6.12;60.47;101295.16;5006937;28;20042;-82
2022/03/05 01:47:36;;;;;;;19.77;15.88;;;;;;;4.45;60.75;101024.78;4989377;28;20141;-81
2022/03/05 01:50:03;;;;;;;21.88;16.52;;;;;;;6.21;60.53;101299.84;4989453;28;20153;-82
2022/03/05 01:52:30;;;;;;;19.10;16.92;;;;;;;5.46;60.40;101177.78;4989296;28;20116;-83
2022/03/05 01:54:58;;;;;;;19.60;15.65;;;;;;;5.91;60.28;101260.31;4989937;28;20327;-80
2022/03/05 01:57:25;;;;;;;19.50;16.70;;;;;;;5.10;60.32;101147.38;4989896;28;20073;-83
2022/03/05 01:59:51;;;;;;;20.30;16.00;;;;;;;5.59;59.84;101218.28;5006636;28;20078;-83
2022/03/05 02:02:20;;;;;;;19.13;15.93;;;;;;;5.62;60.36;101262.88;5006664;28;20499;-82
2022/03/05 02:04:47;;;;;;;24.15;15.88;;;;;;;5.52;60.16;101235.38;5006132;28;20057;-81
2022/03/05 02:07:22;;;;;;;20.02;16.15;;;;;;;4.89;60.06;101126.63;4991011;28;20062;-83
2022/03/05 02:09:54;;;;;;;17.38;15.13;;;;;;;5.59;60.44;101272.75;4990754;28;20461;-82
2022/03/05 02:12:28;;;;;;;19.20;15.52;;;;;;;5.81;60.75;101314.50;5006771;28;20536;-83
2022/03/05 02:14:56;;;;;;;19.65;15.77;;;;;;;5.75;60.58;101298.13;4988655;28;20409;-82
2022/03/05 02:17:22;;;;;;;18.92;15.30;;;;;;;5.65;61.29;101298.72;5008502;28;20200;-81
2022/03/05 02:19:49;;;;;;;17.15;14.55;;;;;;;5.37;61.27;101262.59;5008383;28;20080;-82
2022/03/05 02:22:16;;;;;;;18.92;14.57;;;;;;;5.20;61.42;101235.41;5008395;28;20144;-82
2022/03/05 02:24:42;;;;;;;16.90;14.73;;;;;;;5.41;61.44;101277.25;5008694;28;20064;-82
2022/03/05 02:27:10;;;;;;;21.33;15.40;;;;;;;5.46;61.77;101288.38;5009770;28;20045;-82
2022/03/05 02:29:37;;;;;;;20.05;15.52;;;;;;;5.54;61.19;101301.97;5011475;28;20599;-82
2022/03/05 02:32:05;;;;;;;16.10;14.10;;;;;;;5.55;61.67;101293.97;5009942;28;20136;-82
2022/03/05 02:34:31;;;;;;;19.95;14.45;;;;;;;5.48;61.56;101283.88;5025858;28;20136;-82
2022/03/05 02:36:58;;;;;;;25.25;15.10;;;;;;;4.44;61.21;101119.50;5007656;28;20594;-82
2022/03/05 02:39:25;;;;;;;20.65;15.05;;;;;;;5.29;61.37;101255.97;5007657;28;20333;-82
2022/03/05 02:41:53;;;;;;;18.33;14.93;;;;;;;5.56;61.49;101294.84;5008058;28;20073;-82
2022/03/05 02:44:21;;;;;;;17.92;13.93;;;;;;;5.56;61.86;101294.84;5008036;28;20342;-81
2022/03/05 02:46:49;;;;;;;20.77;14.07;;;;;;;5.57;62.07;101286.84;5008313;28;20132;-82
2022/03/05 02:49:16;;;;;;;22.02;15.15;;;;;;;5.49;61.93;101267.16;5008280;28;20056;-82
2022/03/05 02:51:42;;;;;;;18.77;14.98;;;;;;;5.45;61.78;101244.56;5025395;28;20159;-82
2022/03/05 02:54:09;;;;;;;21.00;15.70;;;;;;;5.65;61.98;101280.28;5007538;28;20174;-82
2022/03/05 02:56:36;;;;;;;18.48;14.52;;;;;;;5.73;62.00;101292.09;5006866;28;20065;-82
2022/03/05 02:59:02;;;;;;;16.63;13.60;;;;;;;5.67;62.11;101292.44;5007874;28;20208;-83
2022/03/05 03:01:29;;;;;;;16.90;14.93;;;;;;;5.56;62.24;101268.50;5007676;28;20049;-82
2022/03/05 03:03:56;;;;;;;17.98;13.88;;;;;;;5.53;61.79;101252.84;5008343;28;20064;-82
2022/03/05 03:06:24;;;;;;;17.45;14.57;;;;;;;5.75;62.22;101292.84;5007798;28;20393;-83
2022/03/05 03:08:50;;;;;;;16.80;14.35;;;;;;;5.20;61.51;101200.34;5007744;28;20447;-83
2022/03/05 03:11:17;;;;;;;21.95;16.25;;;;;;;5.66;61.55;101267.03;5007484;28;20728;-82
2022/03/05 03:13:43;;;;;;;17.25;14.98;;;;;;;5.90;60.99;101308.72;5025142;28;20497;-82
2022/03/05 03:16:10;;;;;;;18.58;13.95;;;;;;;5.93;60.94;101298.81;5006947;28;20052;-82
2022/03/05 03:18:37;;;;;;;15.77;13.45;;;;;;;5.87;61.62;101282.50;4987591;28;20050;-82
2022/03/05 03:21:04;;;;;;;17.05;13.60;;;;;;;5.86;61.48;101291.38;4987887;28;20085;-83
2022/03/05 03:23:30;;;;;;;17.92;14.40;;;;;;;5.92;61.33;101306.81;4988111;28;20050;-80
2022/03/05 03:25:57;;;;;;;19.30;14.95;;;;;;;5.76;60.40;101264.72;4987625;28;20599;-82
2022/03/05 03:28:23;;;;;;;23.38;16.02;;;;;;;5.48;60.55;101239.94;4988256;28;20054;-82
2022/03/05 03:30:50;;;;;;;18.77;14.60;;;;;;;5.84;60.23;101288.81;4987752;28;20089;-82
2022/03/05 03:33:17;;;;;;;17.45;14.27;;;;;;;5.30;60.67;101209.41;4988303;28;20049;-83
2022/03/05 03:35:43;;;;;;;17.75;15.05;;;;;;;5.88;60.93;101300.88;4988127;28;20464;-82
2022/03/05 03:38:10;;;;;;;18.40;14.82;;;;;;;5.83;60.71;101294.19;5004590;28;20566;-82
2022/03/05 03:40:37;;;;;;;17.67;14.70;;;;;;;5.60;61.28;101270.00;4987425;28;20061;-82
2022/03/05 03:43:04;;;;;;;17.63;15.25;;;;;;;5.85;61.04;101301.06;5005159;28;20119;-81
2022/03/05 03:45:30;;;;;;;23.45;16.17;;;;;;;5.82;60.81;101297.75;4987414;28;20085;-81
2022/03/05 03:47:57;;;;;;;18.45;14.35;;;;;;;5.72;61.00;101290.38;5005657;28;20132;-83
2022/03/05 03:50:24;;;;;;;16.98;15.20;;;;;;;5.74;60.81;101293.78;4988017;28;20155;-82
2022/03/05 03:52:51;;;;;;;22.83;15.63;;;;;;;5.68;61.01;101285.34;4991639;28;20351;-83
2022/03/05 03:55:21;;;;;;;19.10;15.65;;;;;;;5.49;60.83;101246.94;4991698;28;20139;-83
2022/03/05 03:57:48;;;;;;;18.58;16.40;;;;;;;5.83;60.75;101317.91;4992599;28;20077;-83
2022/03/05 04:00:18;;;;;;;21.70;15.68;;;;;;;5.85;60.59;101295.81;4993276;28;20060;-82
2022/03/05 04:02:45;;;;;;;20.63;16.60;;;;;;;5.93;60.98;101325.19;4993847;28;20053;-82
2022/03/05 04:05:12;;;;;;;20.30;15.98;;;;;;;5.82;60.84;101295.13;4992765;28;20119;-83
2022/03/05 04:10:25;;;;;;;15.88;14.18;;;;;;;5.79;60.22;101312.78;5031889;28;20050;-83
2022/03/05 04:12:52;;;;;;;15.38;12.82;;;;;;;5.77;60.01;101319.94;5020984;28;20057;-82
2022/03/05 04:15:19;;;;;;;14.95;12.63;;;;;;;4.41;60.49;101131.03;5001435;28;20085;-82
2022/03/05 04:17:46;;;;;;;16.20;12.57;;;;;;;5.40;60.50;101305.38;5028385;28;20053;-82
2022/03/05 04:20:12;;;;;;;14.80;13.03;;;;;;;5.43;60.81;101320.16;5010352;28;20152;-82
2022/03/05 04:22:39;;;;;;;14.53;12.27;;;;;;;5.23;60.44;101293.16;5028121;28;20057;-81
2022/03/05 04:25:06;;;;;;;13.53;12.10;;;;;;;5.00;60.98;101281.28;5010881;28;20049;-81
2022/03/05 04:27:34;;;;;;;15.40;12.33;;;;;;;4.44;60.54;101187.84;5011018;28;20140;-83
2022/03/05 04:30:01;;;;;;;15.77;12.23;;;;;;;4.91;60.98;101274.72;5032321;28;20142;-82
2022/03/05 04:32:27;;;;;;;16.37;13.47;;;;;;;5.22;60.91;101332.72;5013385;28;20366;-82
2022/03/05 04:34:54;;;;;;;18.47;13.07;;;;;;;5.04;61.24;101301.19;5009437;28;20550;-81
2022/03/05 04:37:21;;;;;;;14.57;13.00;;;;;;;4.99;61.65;101307.66;5009783;28;20518;-81
2022/03/05 04:39:47;;;;;;;15.23;13.63;;;;;;;4.81;62.23;101291.09;5010143;28;20096;-81
2022/03/05 04:42:14;;;;;;;14.50;12.63;;;;;;;4.86;62.37;101324.13;5027326;28;20049;-82
2022/03/05 04:44:41;;;;;;;17.47;14.07;;;;;;;4.83;62.81;101326.03;5009795;28;20054;-82
2022/03/05 04:47:08;;;;;;;17.43;14.53;;;;;;;4.20;62.70;101226.81;5009702;28;20149;-81
2022/03/05 04:49:35;;;;;;;15.10;13.50;;;;;;;4.80;62.74;101331.47;5027250;28;20374;-83
2022/03/05 04:52:02;;;;;;;19.27;14.87;;;;;;;4.82;62.07;101319.94;5009639;28;20052;-82
2022/03/05 04:54:30;;;;;;;16.93;14.83;;;;;;;4.87;62.38;101328.44;5009806;28;20049;-82
2022/03/05 04:56:57;;;;;;;16.33;13.87;;;;;;;4.73;62.04;101304.63;5027180;28;20088;-83
2022/03/05 04:59:23;;;;;;;15.80;14.10;;;;;;;4.47;62.46;101277.09;5009619;28;20133;-82
2022/03/05 05:01:50;;;;;;;17.80;14.90;;;;;;;4.65;62.96;101318.19;5025079;28;20140;-81
2022/03/05 05:04:17;;;;;;;20.27;15.03;;;;;;;4.61;63.07;101310.53;4989563;28;20209;-81
2022/03/05 05:06:44;;;;;;;16.83;14.90;;;;;;;3.54;63.29;101133.03;4990355;28;20169;-81
2022/03/05 05:09:10;;;;;;;18.77;14.57;;;;;;;4.71;63.22;101338.94;4990129;28;20056;-81
2022/03/05 05:11:37;;;;;;;16.50;13.87;;;;;;;4.44;62.88;101285.13;4989927;28;20052;-82
2022/03/05 05:14:04;;;;;;;18.77;14.07;;;;;;;4.43;62.95;101276.41;4989928;28;20046;-83
2022/03/05 05:16:30;;;;;;;17.03;14.37;;;;;;;4.59;62.99;101307.19;4969902;28;20058;-81
2022/03/05 05:21:42;;;;;;;17.17;14.20;;;;;;;4.75;63.13;101338.75;4987625;28;20390;-82
2022/03/05 05:24:09;;;;;;;17.90;14.47;;;;;;;4.71;63.81;101338.09;4987716;28;20136;-82
2022/03/05 05:26:35;;;;;;;18.87;16.20;;;;;;;4.59;63.63;101315.06;4970522;28;20146;-82
2022/03/05 05:29:02;;;;;;;20.27;16.10;;;;;;;4.65;63.54;101322.63;4969498;28;20088;-82
2022/03/05 05:31:29;;;;;;;18.77;16.77;;;;;;;4.72;63.15;101334.50;4986964;28;20081;-82
2022/03/05 05:33:56;;;;;;;19.93;17.83;;;;;;;4.57;62.87;101298.50;4970256;28;20152;-82
2022/03/05 05:36:23;;;;;;;23.03;17.57;;;;;;;4.29;63.58;101263.97;4970560;28;20062;-82
2022/03/05 05:38:49;;;;;;;25.77;19.73;;;;;;;4.82;63.34;101334.88;4969721;28;20567;-83
2022/03/05 05:41:18;;;;;;;22.70;18.87;;;;;;;4.81;63.22;101339.28;4970136;28;20244;-81
2022/03/05 05:43:45;;;;;;;26.97;19.40;;;;;;;4.21;63.42;101260.91;4970005;28;20057;-82
2022/03/05 05:46:12;;;;;;;24.83;19.17;;;;;;;4.45;63.90;101300.00;4970342;28;20046;-82
2022/03/05 05:48:52;;;;;;;22.90;19.33;;;;;;;4.61;64.13;101339.47;4971909;28;20042;-81
2022/03/05 05:51:19;;;;;;;27.03;18.97;;;;;;;4.66;63.49;101329.56;4970052;28;20449;-81
2022/03/05 05:53:45;;;;;;;21.10;18.13;;;;;;;4.11;64.09;101258.84;4970001;28;20049;-81
2022/03/05 05:56:12;;;;;;;19.07;15.97;;;;;;;4.59;63.14;101344.00;4969291;28;20469;-82
2022/03/05 05:58:39;;;;;;;27.50;17.83;;;;;;;4.52;63.52;101334.72;4968741;28;20459;-82
2022/03/05 06:01:05;;;;;;;23.90;17.03;;;;;;;4.41;63.08;101320.31;4968852;28;20191;-81
2022/03/05 06:03:32;;;;;;;18.20;15.90;;;;;;;4.50;63.04;101335.63;4967988;28;20051;-81
2022/03/05 06:06:05;;;;;;;18.60;16.60;;;;;;;4.50;63.65;101346.16;4971777;28;20255;-83
2022/03/05 06:08:31;;;;;;;20.17;17.53;;;;;;;4.36;63.65;101334.66;4969074;28;20108;-80
2022/03/05 06:10:58;;;;;;;22.30;17.67;;;;;;;3.53;64.50;101189.94;4968932;28;20073;-81
2022/03/05 06:13:25;;;;;;;23.67;17.53;;;;;;;3.83;64.41;101262.84;4986518;28;20547;-81
2022/03/05 06:15:52;;;;;;;20.43;17.27;;;;;;;3.47;64.04;101206.00;4983430;28;20112;-81
2022/03/05 06:18:18;;;;;;;23.97;17.87;;;;;;;4.24;64.42;101322.97;4988292;28;20575;-80
2022/03/05 06:20:49;;;;;;;24.20;17.43;;;;;;;3.97;65.13;101281.41;4988957;28;20068;-83
2022/03/05 06:23:18;;;;;;;21.80;18.60;;;;;;;3.76;65.33;101259.69;5005072;28;20050;-82
2022/03/05 06:25:45;;;;;;;22.57;17.30;;;;;;;4.34;65.27;101361.00;4990431;28;20112;-82
2022/03/05 06:28:11;;;;;;;21.30;17.03;;;;;;;4.42;65.21;101364.09;5009373;28;20076;-83
2022/03/05 06:30:39;;;;;;;20.57;16.83;;;;;;;4.19;65.85;101340.75;5005956;28;20046;-82
2022/03/05 06:33:05;;;;;;;20.70;17.27;;;;;;;3.64;65.79;101250.66;4997819;28;20050;-81
2022/03/05 06:35:32;;;;;;;23.43;18.57;;;;;;;4.11;65.92;101314.88;4987352;28;20049;-81
2022/03/05 06:37:59;;;;;;;18.87;16.87;;;;;;;4.34;65.46;101349.63;4987752;28;20053;-82
2022/03/05 06:40:25;;;;;;;20.03;17.40;;;;;;;4.41;65.57;101357.13;4987533;28;20508;-82
2022/03/05 06:42:52;;;;;;;22.87;18.33;;;;;;;4.33;65.50;101343.53;4987310;28;20128;-81
2022/03/05 06:45:19;;;;;;;21.07;17.37;;;;;;;4.44;65.32;101371.91;4987640;28;20049;-81
2022/03/05 06:47:46;;;;;;;20.17;17.73;;;;;;;4.21;65.32;101325.75;5004684;28;20089;-82
2022/03/05 06:50:12;;;;;;;20.07;17.20;;;;;;;4.36;65.26;101353.88;4987538;28;20052;-81
2022/03/05 06:52:39;;;;;;;22.23;18.37;;;;;;;4.52;64.77;101374.16;4987356;28;20196;-81
2022/03/05 06:55:07;;;;;;;19.90;17.13;;;;;;;4.53;64.71;101375.84;4986913;28;20057;-81
2022/03/05 06:57:34;;;;;;;18.40;16.07;;;;;;;4.40;64.79;101371.22;4982138;28;20074;-82
2022/03/05 07:00:00;;;;;;;20.40;17.13;;;;;;;4.54;64.29;101382.78;4986995;28;20405;-82
2022/03/05 07:02:28;;;;;;;22.47;17.07;;;;;;;4.09;64.15;101300.09;4986754;28;20508;-81
2022/03/05 07:04:55;;;;;;;20.70;16.20;;;;;;;4.47;63.71;101364.72;5005161;28;20046;-81
2022/03/05 07:07:22;;;;;;;23.47;17.83;;;;;;;4.11;63.61;101312.25;4987444;28;20077;-82
2022/03/05 07:09:48;;;;;;;18.97;15.20;;;;;;;4.11;63.68;101312.25;5012646;28;20297;-83
2022/03/05 07:12:15;;;;;;;22.80;17.33;;;;;;;4.52;63.63;101376.78;5007318;28;20065;-84
2022/03/05 07:14:44;;;;;;;23.33;16.47;;;;;;;4.73;63.25;101396.69;5007407;28;20069;-83
2022/03/05 07:17:11;;;;;;;19.13;17.07;;;;;;;4.64;63.30;101376.16;4986269;28;20152;-82
2022/03/05 07:19:37;;;;;;;21.77;17.10;;;;;;;4.69;63.25;101382.03;4986378;28;20133;-82
2022/03/05 07:22:05;;;;;;;23.03;18.43;;;;;;;4.80;63.70;101399.88;4986218;28;20404;-81
2022/03/05 07:24:31;;;;;;;19.93;16.60;;;;;;;4.52;63.40;101350.50;4986348;28;20052;-82
2022/03/05 07:26:58;;;;;;;21.00;17.03;;;;;;;4.37;63.34;101334.56;4988728;28;20056;-81
2022/03/05 07:29:25;;;;;;;23.53;16.90;;;;;;;4.89;63.26;101410.75;4990549;28;20333;-81
2022/03/05 07:31:51;;;;;;;18.90;16.40;;;;;;;5.00;63.04;101406.72;4990555;28;20133;-81
2022/03/05 07:34:19;;;;;;;21.47;16.23;;;;;;;4.46;62.62;101320.94;4990886;28;20046;-81
2022/03/05 07:36:45;;;;;;;21.13;16.07;;;;;;;5.23;61.17;101421.31;4990582;28;20053;-83
2022/03/05 07:39:12;;;;;;;17.43;15.20;;;;;;;5.29;59.60;101398.13;5008348;28;20060;-80
2022/03/05 07:41:38;;;;;;;18.73;14.83;;;;;;;3.94;59.28;101160.72;4975052;28;20064;-83
2022/03/05 07:44:06;;;;;;;18.10;15.40;;;;;;;4.80;58.17;101292.84;4970970;28;20050;-81
2022/03/05 07:46:35;;;;;;;17.00;14.47;;;;;;;5.63;58.27;101411.22;4987429;28;20050;-81
2022/03/05 07:49:02;;;;;;;20.40;15.03;;;;;;;5.51;57.02;101365.34;4970469;28;20461;-80
2022/03/05 07:51:28;;;;;;;16.63;12.73;;;;;;;4.86;54.57;101255.72;4987793;28;20528;-80
2022/03/05 07:53:55;;;;;;;15.83;11.73;;;;;;;5.73;54.07;101388.72;4988447;28;20054;-81
2022/03/05 07:56:21;;;;;;;16.30;13.77;;;;;;;5.90;54.39;101406.22;4988624;28;20054;-81
2022/03/05 07:58:48;;;;;;;19.27;13.90;;;;;;;6.03;54.82;101409.03;4988323;28;20085;-83
2022/03/05 08:01:15;;;;;;;15.77;12.57;;;;;;;5.99;54.06;101387.25;4988777;28;20058;-82
2022/03/05 08:03:42;;;;;;;16.13;13.20;;;;;;;6.27;53.31;101418.16;4990625;28;20061;-82
2022/03/05 08:06:09;;;;;;;17.83;12.77;;;;;;;6.31;53.66;101418.81;4995323;28;20076;-82
2022/03/05 08:08:36;;;;;;;15.30;12.73;;;;;;;6.12;53.29;101376.88;5017535;28;20122;-81
2022/03/05 08:11:03;;;;;;;17.40;13.65;;;;;;;6.23;52.93;101397.34;5029780;28;20111;-82
2022/03/05 08:13:30;;;;;;;16.88;13.18;;;;;;;5.78;52.54;101308.47;5013243;28;20084;-84
2022/03/05 08:15:57;;;;;;;26.38;14.20;;;;;;;6.38;53.13;101396.44;5030680;28;20045;-84
2022/03/05 08:18:24;;;;;;;18.73;13.77;;;;;;;6.46;52.22;101404.75;5016135;28;20046;-84
2022/03/05 08:20:51;;;;;;;15.57;11.88;;;;;;;6.42;51.27;101379.50;5036857;28;20131;-83
2022/03/05 08:23:17;;;;;;;16.83;12.43;;;;;;;6.70;51.32;101420.06;5037116;28;20045;-85
2022/03/05 08:25:44;;;;;;;15.60;12.85;;;;;;;6.51;51.10;101378.97;5016775;28;20053;-83
2022/03/05 08:28:10;;;;;;;15.73;12.02;;;;;;;6.18;49.77;101336.97;5014361;28;20100;-84
2022/03/05 08:30:40;;;;;;;17.17;12.27;;;;;;;5.56;50.09;101231.63;5010631;28;20145;-84
2022/03/05 08:33:06;;;;;;;15.63;12.90;;;;;;;6.58;50.17;101390.00;5010247;28;20062;-84
2022/03/05 08:35:33;;;;;;;20.55;11.73;;;;;;;6.55;50.91;101388.41;5010674;28;20080;-84
2022/03/05 08:38:00;;;;;;;15.90;13.50;;;;;;;6.55;50.61;101391.03;5009121;28;20072;-84
2022/03/05 08:40:27;;;;;;;15.50;13.10;;;;;;;6.77;51.32;101429.31;5009461;28;20206;-82
2022/03/05 08:42:53;;;;;;;15.55;12.90;;;;;;;6.81;51.60;101428.19;5009555;28;20456;-83
2022/03/05 08:45:20;;;;;;;15.73;13.13;;;;;;;6.05;51.30;101286.75;5009064;28;20181;-82
2022/03/05 08:47:47;;;;;;;16.15;14.35;;;;;;;6.23;51.27;101299.78;5009341;28;20135;-83
2022/03/05 08:50:14;;;;;;;16.00;13.15;;;;;;;5.23;51.24;101158.06;5009822;28;20115;-83
2022/03/05 08:52:41;;;;;;;19.13;14.90;;;;;;;5.73;52.09;101249.94;5010072;28;20049;-83
2022/03/05 08:55:12;;;;;;;17.98;14.30;;;;;;;6.76;52.02;101403.88;5027885;28;20117;-83
2022/03/05 08:57:39;;;;;;;16.90;14.68;;;;;;;6.90;52.12;101425.00;5009950;28;20597;-83
2022/03/05 09:00:08;;;;;;;19.63;15.50;;;;;;;6.79;52.17;101377.28;5026350;28;20515;-84
2022/03/05 09:02:35;;;;;;;20.52;15.90;;;;;;;6.77;53.07;101390.59;5019437;28;20131;-84
2022/03/05 09:05:03;;;;;;;21.63;16.58;;;;;;;6.24;53.34;101301.47;4990078;28;20141;-82
2022/03/05 09:07:29;;;;;;;17.13;14.85;;;;;;;6.76;53.55;101385.41;4990069;28;20305;-84
2022/03/05 09:09:56;;;;;;;19.33;15.05;;;;;;;7.04;52.77;101414.47;4990303;28;20062;-84
2022/03/05 09:12:23;;;;;;;17.92;15.80;;;;;;;6.75;52.91;101387.19;4990724;28;20128;-84
2022/03/05 09:14:49;;;;;;;17.65;13.18;;;;;;;6.63;52.05;101361.56;4984277;28;20097;-83
2022/03/05 09:17:16;;;;;;;17.52;14.98;;;;;;;6.60;52.29;101351.16;4971512;28;20162;-84
2022/03/05 09:19:45;;;;;;;18.33;14.60;;;;;;;6.37;52.02;101307.72;4971153;28;20599;-82
2022/03/05 09:22:12;;;;;;;16.80;14.07;;;;;;;7.04;51.98;101414.47;4970458;28;20489;-82
2022/03/05 09:24:39;;;;;;;19.33;15.30;;;;;;;6.79;51.92;101353.53;4969777;28;20132;-84
2022/03/05 09:27:09;;;;;;;19.02;14.27;;;;;;;7.12;51.68;101399.94;4973324;28;20046;-82
2022/03/05 09:29:36;;;;;;;15.40;13.43;;;;;;;7.24;51.57;101409.75;4986173;28;20054;-83
2022/03/05 09:32:03;;;;;;;15.50;13.38;;;;;;;7.27;50.83;101399.81;4986364;28;20419;-84
2022/03/05 09:34:30;;;;;;;15.40;12.65;;;;;;;7.33;50.79;101409.19;4986282;28;20077;-82
2022/03/05 09:36:57;;;;;;;14.25;12.57;;;;;;;7.42;49.82;101405.94;4971092;28;20054;-82
2022/03/05 09:39:24;;;;;;;21.75;13.75;;;;;;;7.33;49.96;101393.34;4970303;28;20339;-82
2022/03/05 09:41:53;;;;;;;16.85;12.75;;;;;;;7.45;49.84;101395.19;4988322;28;20086;-82
2022/03/05 09:44:19;;;;;;;17.65;12.90;;;;;;;7.49;49.38;101386.13;4970397;28;20058;-81
2022/03/05 09:46:47;;;;;;;18.02;12.38;;;;;;;7.67;49.60;101392.03;4970962;28;20544;-81
2022/03/05 09:49:14;;;;;;;15.13;12.00;;;;;;;7.26;49.27;101302.22;4970482;28;20467;-82
2022/03/05 09:51:41;;;;;;;14.98;12.32;;;;;;;7.88;49.23;101384.50;4987452;28;20137;-83
2022/03/05 09:54:07;;;;;;;16.08;12.07;;;;;;;7.76;49.06;101343.00;4971027;28;20522;-82
2022/03/05 09:56:34;;;;;;;14.20;12.27;;;;;;;8.09;48.91;101368.19;4970466;28;20109;-82
2022/03/05 09:59:01;;;;;;;14.63;10.80;;;;;;;8.25;47.76;101392.69;4988079;28;20074;-82
2022/03/05 10:01:28;;;;;;;19.80;11.45;;;;;;;8.28;47.37;101391.63;4988033;28;20164;-82
2022/03/05 10:03:55;;;;;;;15.27;10.80;;;;;;;8.25;47.66;101358.28;4988750;28;20120;-82
2022/03/05 10:06:26;;;;;;;12.98;9.43;;;;;;;8.52;46.25;101390.00;4989806;28;20046;-81
2022/03/05 10:08:55;;;;;;;13.90;10.65;;;;;;;8.61;46.80;101363.84;4989932;28;20136;-82
2022/03/05 10:11:38;;;;;;;14.77;11.70;;;;;;;7.74;45.50;101186.31;4990968;28;20196;-82
2022/03/05 10:14:16;;;;;;;13.57;11.13;;;;;;;9.07;45.41;101373.91;4990148;28;20072;-83
2022/03/05 10:16:43;;;;;;;11.85;10.45;;;;;;;9.04;45.10;101343.19;5009869;28;20080;-82
2022/03/05 10:19:21;;;;;;;11.93;9.65;;;;;;;7.92;44.38;101099.63;5010463;28;20127;-83
2022/03/05 10:21:59;;;;;;;10.85;8.48;;;;;;;9.69;42.54;101355.31;5013324;28;20112;-82
2022/03/05 10:24:37;;;;;;;10.23;8.15;;;;;;;9.68;42.48;101347.44;5021150;28;20076;-85
2022/03/05 10:27:06;;;;;;;12.93;9.38;;;;;;;8.81;42.22;101215.06;5025830;28;20076;-84
2022/03/05 10:29:36;;;;;;;15.13;9.15;;;;;;;9.60;42.46;101367.41;5033259;28;20049;-84
2022/03/05 10:32:10;;;;;;;11.82;8.90;;;;;;;8.96;43.17;101250.19;5027393;28;20060;-83
2022/03/05 10:34:44;;;;;;;14.70;9.45;;;;;;;9.50;43.10;101360.25;5012254;28;20061;-82
2022/03/05 10:37:11;;;;;;;12.48;9.85;;;;;;;9.51;43.04;101346.88;5010857;28;20507;-82
2022/03/05 10:39:38;;;;;;;14.98;10.02;;;;;;;9.55;42.59;101344.84;5010710;28;20136;-83
2022/03/05 10:42:21;;;;;;;11.75;8.80;;;;;;;9.58;42.35;101331.38;5010834;28;20050;-82
2022/03/05 10:45:05;;;;;;;10.07;6.88;;;;;;;9.62;39.04;101312.47;5014650;28;20562;-82
2022/03/05 10:47:43;;;;;;;9.55;5.88;;;;;;;9.60;37.43;101325.00;5014493;28;20080;-80
2022/03/05 10:50:13;;;;;;;7.43;6.35;;;;;;;9.72;38.68;101338.31;5011942;28;20136;-81
2022/03/05 10:52:54;;;;;;;7.25;6.13;;;;;;;9.81;37.50;101311.13;5010115;28;20136;-80
2022/03/05 10:55:23;;;;;;;10.98;6.68;;;;;;;9.72;38.45;101258.78;5010937;28;20103;-84
2022/03/05 10:58:00;;;;;;;7.90;7.10;;;;;;;10.21;36.77;101316.06;5028087;28;20046;-82
2022/03/05 11:00:28;;;;;;;9.52;6.75;;;;;;;10.34;36.10;101335.47;5009504;28;20049;-81
2022/03/05 11:03:02;;;;;;;8.60;7.07;;;;;;;9.98;36.43;101248.88;5010736;28;20057;-81
2022/03/05 11:05:30;;;;;;;9.45;7.05;;;;;;;10.28;35.68;101304.06;5010956;28;20064;-81
2022/03/05 11:07:57;;;;;;;9.90;6.55;;;;;;;10.60;35.89;101320.16;5029727;28;20081;-80
2022/03/05 11:10:27;;;;;;;9.60;7.22;;;;;;;10.90;35.21;101322.25;5013634;28;20049;-82
2022/03/05 11:12:56;;;;;;;7.80;7.03;;;;;;;11.09;34.67;101307.47;5030943;28;20558;-81
2022/03/05 11:15:24;;;;;;;8.70;6.78;;;;;;;10.90;33.67;101295.69;5018257;28;20050;-81
2022/03/05 11:17:51;;;;;;;8.57;7.38;;;;;;;10.33;34.48;101200.22;4993861;28;20049;-81
2022/03/05 11:20:18;;;;;;;9.13;6.53;;;;;;;10.12;33.40;101157.59;5010487;28;20148;-81
2022/03/05 11:22:49;;;;;;;9.98;6.78;;;;;;;10.63;33.63;101192.50;5010119;28;20108;-80
2022/03/05 11:25:19;;;;;;;9.60;7.27;;;;;;;11.39;32.97;101263.47;5011125;28;20049;-80
2022/03/05 11:28:07;;;;;;;7.15;6.13;;;;;;;11.27;31.97;101186.41;5009932;28;20445;-82